sensor_id;sensor_type;location;lat;lon;timestamp;P1;durP1;ratioP1;P2;durP2;ratioP2
12163;SDS011;6145;50.192;10.064;2023-11-18T00:01:42;8.13;;;6.73;;
12163;SDS011;6145;50.192;10.064;2023-11-18T00:04:08;9.83;;;7.03;;
12163;SDS011;6145;50.192;10.064;2023-11-18T00:06:42;7.90;;;6.87;;
12163;SDS011;6145;50.192;10.064;2023-11-18T00:09:09;6.80;;;6.10;;
12163;SDS011;6145;50.192;10.064;2023-11-18T00:11:38;7.00;;;6.30;;
12163;SDS011;6145;50.192;10.064;2023-11-18T00:14:04;6.30;;;5.70;;
12163;SDS011;6145;50.192;10.064;2023-11-18T00:16:31;7.33;;;5.93;;
12163;SDS011;6145;50.192;10.064;2023-11-18T00:18:59;7.03;;;5.53;;
12163;SDS011;6145;50.192;10.064;2023-11-18T00:21:26;9.03;;;7.30;;
12163;SDS011;6145;50.192;10.064;2023-11-18T00:23:55;6.80;;;5.93;;
12163;SDS011;6145;50.192;10.064;2023-11-18T00:26:22;10.70;;;7.20;;
12163;SDS011;6145;50.192;10.064;2023-11-18T00:28:50;7.00;;;6.23;;
12163;SDS011;6145;50.192;10.064;2023-11-18T00:31:17;7.87;;;5.93;;
12163;SDS011;6145;50.192;10.064;2023-11-18T00:33:43;9.43;;;6.30;;
12163;SDS011;6145;50.192;10.064;2023-11-18T00:36:10;6.57;;;5.70;;
12163;SDS011;6145;50.192;10.064;2023-11-18T00:38:37;8.07;;;6.00;;
12163;SDS011;6145;50.192;10.064;2023-11-18T00:41:05;8.77;;;6.83;;
12163;SDS011;6145;50.192;10.064;2023-11-18T00:43:32;10.63;;;7.73;;
12163;SDS011;6145;50.192;10.064;2023-11-18T00:45:59;8.90;;;7.50;;
12163;SDS011;6145;50.192;10.064;2023-11-18T00:48:28;9.07;;;7.40;;
12163;SDS011;6145;50.192;10.064;2023-11-18T00:50:55;10.23;;;7.53;;
12163;SDS011;6145;50.192;10.064;2023-11-18T00:53:22;9.73;;;8.63;;
12163;SDS011;6145;50.192;10.064;2023-11-18T00:55:49;16.73;;;9.00;;
12163;SDS011;6145;50.192;10.064;2023-11-18T00:58:17;16.50;;;9.63;;
12163;SDS011;6145;50.192;10.064;2023-11-18T01:00:44;11.37;;;8.27;;
12163;SDS011;6145;50.192;10.064;2023-11-18T01:03:11;18.10;;;10.03;;
12163;SDS011;6145;50.192;10.064;2023-11-18T01:05:37;18.03;;;9.30;;
12163;SDS011;6145;50.192;10.064;2023-11-18T01:08:04;27.43;;;11.00;;
12163;SDS011;6145;50.192;10.064;2023-11-18T01:10:31;33.13;;;11.20;;
12163;SDS011;6145;50.192;10.064;2023-11-18T01:12:58;39.10;;;11.73;;
12163;SDS011;6145;50.192;10.064;2023-11-18T01:15:27;107.17;;;19.13;;
12163;SDS011;6145;50.192;10.064;2023-11-18T01:17:54;77.07;;;15.77;;
12163;SDS011;6145;50.192;10.064;2023-11-18T01:20:20;68.13;;;15.47;;
12163;SDS011;6145;50.192;10.064;2023-11-18T01:22:47;43.27;;;14.93;;
12163;SDS011;6145;50.192;10.064;2023-11-18T01:25:14;18.13;;;10.00;;
12163;SDS011;6145;50.192;10.064;2023-11-18T01:27:43;14.87;;;8.80;;
12163;SDS011;6145;50.192;10.064;2023-11-18T01:30:12;10.97;;;8.67;;
12163;SDS011;6145;50.192;10.064;2023-11-18T01:32:40;78.60;;;33.37;;
12163;SDS011;6145;50.192;10.064;2023-11-18T01:35:08;29.00;;;13.87;;
12163;SDS011;6145;50.192;10.064;2023-11-18T01:37:35;22.90;;;15.60;;
12163;SDS011;6145;50.192;10.064;2023-11-18T01:40:03;23.27;;;16.53;;
12163;SDS011;6145;50.192;10.064;2023-11-18T01:42:32;18.20;;;12.30;;
12163;SDS011;6145;50.192;10.064;2023-11-18T01:44:58;17.33;;;9.30;;
12163;SDS011;6145;50.192;10.064;2023-11-18T01:47:28;19.67;;;9.60;;
12163;SDS011;6145;50.192;10.064;2023-11-18T01:50:00;81.00;;;14.10;;
12163;SDS011;6145;50.192;10.064;2023-11-18T01:52:30;68.87;;;13.60;;
12163;SDS011;6145;50.192;10.064;2023-11-18T01:55:00;39.63;;;11.27;;
12163;SDS011;6145;50.192;10.064;2023-11-18T01:57:28;118.10;;;16.47;;
12163;SDS011;6145;50.192;10.064;2023-11-18T01:59:58;30.63;;;10.27;;
12163;SDS011;6145;50.192;10.064;2023-11-18T02:02:25;15.40;;;9.27;;
12163;SDS011;6145;50.192;10.064;2023-11-18T02:04:52;50.63;;;12.67;;
12163;SDS011;6145;50.192;10.064;2023-11-18T02:07:22;44.23;;;11.30;;
12163;SDS011;6145;50.192;10.064;2023-11-18T02:09:52;13.83;;;9.43;;
12163;SDS011;6145;50.192;10.064;2023-11-18T02:12:21;69.70;;;13.67;;
12163;SDS011;6145;50.192;10.064;2023-11-18T02:14:53;113.90;;;19.20;;
12163;SDS011;6145;50.192;10.064;2023-11-18T02:17:21;38.03;;;10.27;;
12163;SDS011;6145;50.192;10.064;2023-11-18T02:19:49;184.23;;;24.20;;
12163;SDS011;6145;50.192;10.064;2023-11-18T02:22:17;139.17;;;19.27;;
12163;SDS011;6145;50.192;10.064;2023-11-18T02:24:48;54.77;;;12.47;;
12163;SDS011;6145;50.192;10.064;2023-11-18T02:27:16;10.57;;;9.30;;
12163;SDS011;6145;50.192;10.064;2023-11-18T02:29:45;11.50;;;10.10;;
12163;SDS011;6145;50.192;10.064;2023-11-18T02:32:15;14.07;;;8.50;;
12163;SDS011;6145;50.192;10.064;2023-11-18T02:34:49;77.00;;;13.70;;
12163;SDS011;6145;50.192;10.064;2023-11-18T02:37:23;241.93;;;25.50;;
12163;SDS011;6145;50.192;10.064;2023-11-18T02:39:54;12.73;;;8.67;;
12163;SDS011;6145;50.192;10.064;2023-11-18T02:42:34;12.60;;;7.67;;
12163;SDS011;6145;50.192;10.064;2023-11-18T02:45:03;11.17;;;8.50;;
12163;SDS011;6145;50.192;10.064;2023-11-18T02:47:33;140.93;;;21.20;;
12163;SDS011;6145;50.192;10.064;2023-11-18T02:50:00;36.07;;;11.03;;
12163;SDS011;6145;50.192;10.064;2023-11-18T02:52:35;18.33;;;9.50;;
12163;SDS011;6145;50.192;10.064;2023-11-18T02:55:03;87.27;;;14.80;;
12163;SDS011;6145;50.192;10.064;2023-11-18T02:57:31;56.47;;;11.43;;
12163;SDS011;6145;50.192;10.064;2023-11-18T02:59:59;23.07;;;12.13;;
12163;SDS011;6145;50.192;10.064;2023-11-18T03:02:27;15.17;;;10.27;;
12163;SDS011;6145;50.192;10.064;2023-11-18T03:04:55;22.57;;;9.37;;
12163;SDS011;6145;50.192;10.064;2023-11-18T03:07:21;34.30;;;10.83;;
12163;SDS011;6145;50.192;10.064;2023-11-18T03:09:48;30.10;;;9.00;;
12163;SDS011;6145;50.192;10.064;2023-11-18T03:14:59;22.13;;;8.93;;
12163;SDS011;6145;50.192;10.064;2023-11-18T03:17:26;31.60;;;8.90;;
12163;SDS011;6145;50.192;10.064;2023-11-18T03:19:53;49.03;;;11.63;;
12163;SDS011;6145;50.192;10.064;2023-11-18T03:22:20;20.10;;;9.20;;
12163;SDS011;6145;50.192;10.064;2023-11-18T03:25:10;20.93;;;8.50;;
12163;SDS011;6145;50.192;10.064;2023-11-18T03:27:37;9.70;;;7.53;;
12163;SDS011;6145;50.192;10.064;2023-11-18T03:30:06;36.63;;;10.23;;
12163;SDS011;6145;50.192;10.064;2023-11-18T03:32:33;9.53;;;7.90;;
12163;SDS011;6145;50.192;10.064;2023-11-18T03:35:00;36.17;;;9.90;;
12163;SDS011;6145;50.192;10.064;2023-11-18T03:37:28;9.97;;;8.83;;
12163;SDS011;6145;50.192;10.064;2023-11-18T03:39:54;11.40;;;9.03;;
12163;SDS011;6145;50.192;10.064;2023-11-18T03:42:21;10.20;;;7.73;;
12163;SDS011;6145;50.192;10.064;2023-11-18T03:44:48;9.13;;;6.83;;
12163;SDS011;6145;50.192;10.064;2023-11-18T03:47:16;10.30;;;7.13;;
12163;SDS011;6145;50.192;10.064;2023-11-18T03:49:49;8.27;;;7.17;;
12163;SDS011;6145;50.192;10.064;2023-11-18T03:52:15;7.70;;;6.90;;
12163;SDS011;6145;50.192;10.064;2023-11-18T03:54:42;9.17;;;7.23;;
12163;SDS011;6145;50.192;10.064;2023-11-18T03:57:09;7.97;;;7.10;;
12163;SDS011;6145;50.192;10.064;2023-11-18T03:59:36;9.90;;;7.00;;
12163;SDS011;6145;50.192;10.064;2023-11-18T04:02:05;8.43;;;7.20;;
12163;SDS011;6145;50.192;10.064;2023-11-18T04:04:34;36.73;;;8.27;;
12163;SDS011;6145;50.192;10.064;2023-11-18T04:07:00;18.73;;;7.00;;
12163;SDS011;6145;50.192;10.064;2023-11-18T04:09:27;9.57;;;6.77;;
12163;SDS011;6145;50.192;10.064;2023-11-18T04:11:55;14.40;;;6.97;;
12163;SDS011;6145;50.192;10.064;2023-11-18T04:14:21;14.10;;;6.90;;
12163;SDS011;6145;50.192;10.064;2023-11-18T04:16:48;28.53;;;8.37;;
12163;SDS011;6145;50.192;10.064;2023-11-18T04:19:15;84.37;;;13.30;;
12163;SDS011;6145;50.192;10.064;2023-11-18T04:21:46;11.20;;;7.23;;
12163;SDS011;6145;50.192;10.064;2023-11-18T04:24:14;36.97;;;9.47;;
12163;SDS011;6145;50.192;10.064;2023-11-18T04:26:41;11.90;;;7.37;;
12163;SDS011;6145;50.192;10.064;2023-11-18T04:29:08;10.67;;;6.77;;
12163;SDS011;6145;50.192;10.064;2023-11-18T04:31:34;10.03;;;6.90;;
12163;SDS011;6145;50.192;10.064;2023-11-18T04:34:02;9.67;;;6.47;;
12163;SDS011;6145;50.192;10.064;2023-11-18T04:36:30;13.70;;;7.17;;
12163;SDS011;6145;50.192;10.064;2023-11-18T04:38:58;12.70;;;6.77;;
12163;SDS011;6145;50.192;10.064;2023-11-18T04:41:25;14.37;;;7.50;;
12163;SDS011;6145;50.192;10.064;2023-11-18T04:43:52;12.10;;;6.90;;
12163;SDS011;6145;50.192;10.064;2023-11-18T04:46:19;10.67;;;6.73;;
12163;SDS011;6145;50.192;10.064;2023-11-18T04:48:50;40.43;;;15.13;;
12163;SDS011;6145;50.192;10.064;2023-11-18T04:51:18;36.10;;;10.57;;
12163;SDS011;6145;50.192;10.064;2023-11-18T04:53:46;53.73;;;8.97;;
12163;SDS011;6145;50.192;10.064;2023-11-18T04:56:17;71.47;;;11.93;;
12163;SDS011;6145;50.192;10.064;2023-11-18T04:58:44;8.70;;;7.10;;
12163;SDS011;6145;50.192;10.064;2023-11-18T05:01:12;8.27;;;7.43;;
12163;SDS011;6145;50.192;10.064;2023-11-18T05:03:39;10.47;;;7.73;;
12163;SDS011;6145;50.192;10.064;2023-11-18T05:06:06;12.33;;;9.50;;
12163;SDS011;6145;50.192;10.064;2023-11-18T05:08:33;17.70;;;9.13;;
12163;SDS011;6145;50.192;10.064;2023-11-18T05:11:01;12.63;;;9.53;;
12163;SDS011;6145;50.192;10.064;2023-11-18T05:13:31;14.33;;;7.77;;
12163;SDS011;6145;50.192;10.064;2023-11-18T05:16:01;13.57;;;7.10;;
12163;SDS011;6145;50.192;10.064;2023-11-18T05:18:32;12.87;;;6.97;;
12163;SDS011;6145;50.192;10.064;2023-11-18T05:21:01;15.33;;;7.10;;
12163;SDS011;6145;50.192;10.064;2023-11-18T05:23:30;14.87;;;7.47;;
12163;SDS011;6145;50.192;10.064;2023-11-18T05:25:57;8.80;;;7.30;;
12163;SDS011;6145;50.192;10.064;2023-11-18T05:28:24;8.70;;;6.70;;
12163;SDS011;6145;50.192;10.064;2023-11-18T05:33:42;33.73;;;9.13;;
12163;SDS011;6145;50.192;10.064;2023-11-18T05:36:09;36.33;;;8.93;;
12163;SDS011;6145;50.192;10.064;2023-11-18T05:38:36;17.73;;;7.40;;
12163;SDS011;6145;50.192;10.064;2023-11-18T05:41:04;21.77;;;7.90;;
12163;SDS011;6145;50.192;10.064;2023-11-18T05:43:41;9.53;;;7.17;;
12163;SDS011;6145;50.192;10.064;2023-11-18T05:46:17;13.37;;;6.30;;
12163;SDS011;6145;50.192;10.064;2023-11-18T05:48:47;9.30;;;7.07;;
12163;SDS011;6145;50.192;10.064;2023-11-18T05:51:18;27.73;;;8.17;;
12163;SDS011;6145;50.192;10.064;2023-11-18T05:53:47;24.93;;;8.70;;
12163;SDS011;6145;50.192;10.064;2023-11-18T05:56:14;10.60;;;6.83;;
12163;SDS011;6145;50.192;10.064;2023-11-18T05:58:42;11.80;;;6.37;;
12163;SDS011;6145;50.192;10.064;2023-11-18T06:01:09;11.70;;;6.60;;
12163;SDS011;6145;50.192;10.064;2023-11-18T06:03:38;18.17;;;7.37;;
12163;SDS011;6145;50.192;10.064;2023-11-18T06:06:06;14.87;;;7.13;;
12163;SDS011;6145;50.192;10.064;2023-11-18T06:08:34;35.83;;;8.33;;
12163;SDS011;6145;50.192;10.064;2023-11-18T06:11:02;10.77;;;6.87;;
12163;SDS011;6145;50.192;10.064;2023-11-18T06:13:38;17.17;;;8.07;;
12163;SDS011;6145;50.192;10.064;2023-11-18T06:16:07;10.33;;;6.80;;
12163;SDS011;6145;50.192;10.064;2023-11-18T06:18:40;8.03;;;6.30;;
12163;SDS011;6145;50.192;10.064;2023-11-18T06:21:10;25.17;;;7.90;;
12163;SDS011;6145;50.192;10.064;2023-11-18T06:23:38;27.43;;;7.10;;
12163;SDS011;6145;50.192;10.064;2023-11-18T06:26:05;46.17;;;9.00;;
12163;SDS011;6145;50.192;10.064;2023-11-18T06:28:32;30.73;;;7.87;;
12163;SDS011;6145;50.192;10.064;2023-11-18T06:30:59;10.83;;;6.93;;
12163;SDS011;6145;50.192;10.064;2023-11-18T06:33:27;17.07;;;7.10;;
12163;SDS011;6145;50.192;10.064;2023-11-18T06:35:55;12.63;;;6.97;;
12163;SDS011;6145;50.192;10.064;2023-11-18T06:38:22;14.90;;;6.60;;
12163;SDS011;6145;50.192;10.064;2023-11-18T06:40:49;13.50;;;7.57;;
12163;SDS011;6145;50.192;10.064;2023-11-18T06:43:18;11.57;;;7.20;;
12163;SDS011;6145;50.192;10.064;2023-11-18T06:45:45;10.47;;;6.53;;
12163;SDS011;6145;50.192;10.064;2023-11-18T06:48:13;11.50;;;7.37;;
12163;SDS011;6145;50.192;10.064;2023-11-18T06:54:08;9.17;;;7.67;;
12163;SDS011;6145;50.192;10.064;2023-11-18T06:56:35;9.27;;;7.20;;
12163;SDS011;6145;50.192;10.064;2023-11-18T06:59:03;8.23;;;6.80;;
12163;SDS011;6145;50.192;10.064;2023-11-18T07:01:33;11.77;;;6.57;;
12163;SDS011;6145;50.192;10.064;2023-11-18T08:51:19;12.87;;;10.63;;
12163;SDS011;6145;50.192;10.064;2023-11-18T08:53:46;12.70;;;10.03;;
12163;SDS011;6145;50.192;10.064;2023-11-18T08:56:15;12.17;;;10.47;;
12163;SDS011;6145;50.192;10.064;2023-11-18T08:58:45;13.50;;;11.30;;
12163;SDS011;6145;50.192;10.064;2023-11-18T09:01:13;23.93;;;12.17;;
12163;SDS011;6145;50.192;10.064;2023-11-18T09:03:41;25.33;;;11.73;;
12163;SDS011;6145;50.192;10.064;2023-11-18T09:06:20;22.90;;;12.73;;
12163;SDS011;6145;50.192;10.064;2023-11-18T09:08:53;26.93;;;12.53;;
12163;SDS011;6145;50.192;10.064;2023-11-18T09:11:23;22.50;;;12.67;;
12163;SDS011;6145;50.192;10.064;2023-11-18T09:13:54;21.63;;;13.03;;
12163;SDS011;6145;50.192;10.064;2023-11-18T09:16:25;23.70;;;13.40;;
12163;SDS011;6145;50.192;10.064;2023-11-18T09:19:08;19.20;;;13.07;;
12163;SDS011;6145;50.192;10.064;2023-11-18T09:21:38;17.20;;;12.00;;
12163;SDS011;6145;50.192;10.064;2023-11-18T09:24:07;17.83;;;12.40;;
12163;SDS011;6145;50.192;10.064;2023-11-18T09:26:38;24.20;;;14.30;;
12163;SDS011;6145;50.192;10.064;2023-11-18T09:29:05;24.23;;;13.47;;
12163;SDS011;6145;50.192;10.064;2023-11-18T09:31:33;24.90;;;14.90;;
12163;SDS011;6145;50.192;10.064;2023-11-18T09:34:01;23.00;;;14.43;;
12163;SDS011;6145;50.192;10.064;2023-11-18T09:36:31;17.63;;;14.00;;
12163;SDS011;6145;50.192;10.064;2023-11-18T09:39:00;18.83;;;13.63;;
12163;SDS011;6145;50.192;10.064;2023-11-18T09:41:28;20.70;;;14.77;;
12163;SDS011;6145;50.192;10.064;2023-11-18T09:43:56;21.73;;;15.13;;
12163;SDS011;6145;50.192;10.064;2023-11-18T09:46:27;19.83;;;14.50;;
12163;SDS011;6145;50.192;10.064;2023-11-18T09:49:01;21.63;;;16.03;;
12163;SDS011;6145;50.192;10.064;2023-11-18T09:51:41;17.87;;;13.60;;
12163;SDS011;6145;50.192;10.064;2023-11-18T09:54:19;19.73;;;15.13;;
12163;SDS011;6145;50.192;10.064;2023-11-18T09:56:56;19.97;;;15.27;;
12163;SDS011;6145;50.192;10.064;2023-11-18T09:59:36;16.07;;;12.43;;
12163;SDS011;6145;50.192;10.064;2023-11-18T10:02:10;21.83;;;14.73;;
12163;SDS011;6145;50.192;10.064;2023-11-18T10:04:37;21.03;;;16.13;;
12163;SDS011;6145;50.192;10.064;2023-11-18T10:07:04;19.53;;;14.80;;
12163;SDS011;6145;50.192;10.064;2023-11-18T10:09:33;23.47;;;17.47;;
12163;SDS011;6145;50.192;10.064;2023-11-18T10:12:02;18.70;;;14.13;;
12163;SDS011;6145;50.192;10.064;2023-11-18T10:14:31;18.77;;;14.77;;
12163;SDS011;6145;50.192;10.064;2023-11-18T10:16:58;17.77;;;14.30;;
12163;SDS011;6145;50.192;10.064;2023-11-18T10:22:23;22.30;;;14.90;;
12163;SDS011;6145;50.192;10.064;2023-11-18T10:24:53;24.00;;;16.23;;
12163;SDS011;6145;50.192;10.064;2023-11-18T10:27:21;25.30;;;15.10;;
12163;SDS011;6145;50.192;10.064;2023-11-18T10:29:50;26.77;;;15.63;;
12163;SDS011;6145;50.192;10.064;2023-11-18T10:32:21;23.90;;;16.27;;
12163;SDS011;6145;50.192;10.064;2023-11-18T10:34:58;24.90;;;16.83;;
12163;SDS011;6145;50.192;10.064;2023-11-18T10:37:35;24.13;;;16.60;;
12163;SDS011;6145;50.192;10.064;2023-11-18T10:40:10;29.73;;;17.30;;
12163;SDS011;6145;50.192;10.064;2023-11-18T10:42:40;24.27;;;14.63;;
12163;SDS011;6145;50.192;10.064;2023-11-18T10:45:11;28.20;;;15.77;;
12163;SDS011;6145;50.192;10.064;2023-11-18T10:47:39;27.40;;;15.60;;
12163;SDS011;6145;50.192;10.064;2023-11-18T10:50:09;28.33;;;17.03;;
12163;SDS011;6145;50.192;10.064;2023-11-18T10:52:36;32.17;;;17.37;;
12163;SDS011;6145;50.192;10.064;2023-11-18T10:55:06;28.43;;;16.13;;
12163;SDS011;6145;50.192;10.064;2023-11-18T10:57:37;29.97;;;16.43;;
12163;SDS011;6145;50.192;10.064;2023-11-18T11:00:07;27.73;;;16.43;;
12163;SDS011;6145;50.192;10.064;2023-11-18T11:02:39;34.27;;;17.23;;
12163;SDS011;6145;50.192;10.064;2023-11-18T11:05:07;38.93;;;16.97;;
12163;SDS011;6145;50.192;10.064;2023-11-18T11:07:40;26.87;;;16.57;;
12163;SDS011;6145;50.192;10.064;2023-11-18T11:10:09;29.80;;;16.03;;
12163;SDS011;6145;50.192;10.064;2023-11-18T11:12:42;34.77;;;17.63;;
12163;SDS011;6145;50.192;10.064;2023-11-18T11:15:17;28.47;;;17.53;;
12163;SDS011;6145;50.192;10.064;2023-11-18T11:17:48;28.10;;;15.50;;
12163;SDS011;6145;50.192;10.064;2023-11-18T11:20:20;28.73;;;15.37;;
12163;SDS011;6145;50.192;10.064;2023-11-18T11:22:56;29.20;;;16.23;;
12163;SDS011;6145;50.192;10.064;2023-11-18T11:25:35;28.80;;;16.13;;
12163;SDS011;6145;50.192;10.064;2023-11-18T11:28:10;36.20;;;17.50;;
12163;SDS011;6145;50.192;10.064;2023-11-18T11:30:42;37.53;;;14.43;;
12163;SDS011;6145;50.192;10.064;2023-11-18T11:33:17;24.47;;;13.67;;
12163;SDS011;6145;50.192;10.064;2023-11-18T11:35:53;30.03;;;14.17;;
12163;SDS011;6145;50.192;10.064;2023-11-18T11:38:23;24.50;;;14.00;;
12163;SDS011;6145;50.192;10.064;2023-11-18T11:40:52;25.20;;;13.37;;
12163;SDS011;6145;50.192;10.064;2023-11-18T11:43:22;22.20;;;14.23;;
12163;SDS011;6145;50.192;10.064;2023-11-18T11:45:53;32.20;;;14.30;;
12163;SDS011;6145;50.192;10.064;2023-11-18T11:48:21;36.13;;;14.70;;
12163;SDS011;6145;50.192;10.064;2023-11-18T11:50:55;20.67;;;12.77;;
12163;SDS011;6145;50.192;10.064;2023-11-18T11:53:30;30.90;;;14.10;;
12163;SDS011;6145;50.192;10.064;2023-11-18T11:56:01;37.97;;;17.73;;
12163;SDS011;6145;50.192;10.064;2023-11-18T11:58:34;33.87;;;15.50;;
12163;SDS011;6145;50.192;10.064;2023-11-18T12:01:02;35.90;;;17.10;;
12163;SDS011;6145;50.192;10.064;2023-11-18T12:03:43;45.97;;;19.27;;
12163;SDS011;6145;50.192;10.064;2023-11-18T12:06:13;38.93;;;19.33;;
12163;SDS011;6145;50.192;10.064;2023-11-18T12:08:41;36.90;;;18.97;;
12163;SDS011;6145;50.192;10.064;2023-11-18T12:11:09;34.93;;;17.37;;
12163;SDS011;6145;50.192;10.064;2023-11-18T12:13:39;34.73;;;17.93;;
12163;SDS011;6145;50.192;10.064;2023-11-18T12:16:09;34.37;;;17.77;;
12163;SDS011;6145;50.192;10.064;2023-11-18T12:18:41;35.87;;;17.30;;
12163;SDS011;6145;50.192;10.064;2023-11-18T12:21:09;35.40;;;17.93;;
12163;SDS011;6145;50.192;10.064;2023-11-18T12:26:43;39.50;;;19.57;;
12163;SDS011;6145;50.192;10.064;2023-11-18T12:31:59;31.60;;;17.57;;
12163;SDS011;6145;50.192;10.064;2023-11-18T12:43:22;30.87;;;16.10;;
12163;SDS011;6145;50.192;10.064;2023-11-18T12:49:14;30.37;;;16.00;;
12163;SDS011;6145;50.192;10.064;2023-11-18T12:51:42;29.67;;;15.37;;
12163;SDS011;6145;50.192;10.064;2023-11-18T12:54:09;28.37;;;15.53;;
12163;SDS011;6145;50.192;10.064;2023-11-18T12:56:38;27.13;;;16.07;;
12163;SDS011;6145;50.192;10.064;2023-11-18T12:59:26;27.23;;;15.67;;
12163;SDS011;6145;50.192;10.064;2023-11-18T13:02:07;32.17;;;16.27;;
12163;SDS011;6145;50.192;10.064;2023-11-18T13:04:38;30.43;;;16.73;;
12163;SDS011;6145;50.192;10.064;2023-11-18T13:07:05;31.43;;;17.43;;
12163;SDS011;6145;50.192;10.064;2023-11-18T13:09:36;37.33;;;19.37;;
12163;SDS011;6145;50.192;10.064;2023-11-18T13:12:06;29.37;;;17.53;;
12163;SDS011;6145;50.192;10.064;2023-11-18T13:14:34;34.40;;;18.27;;
12163;SDS011;6145;50.192;10.064;2023-11-18T13:17:02;34.50;;;17.30;;
12163;SDS011;6145;50.192;10.064;2023-11-18T13:19:43;31.50;;;17.80;;
12163;SDS011;6145;50.192;10.064;2023-11-18T13:22:13;34.37;;;17.73;;
12163;SDS011;6145;50.192;10.064;2023-11-18T13:24:41;33.23;;;17.07;;
12163;SDS011;6145;50.192;10.064;2023-11-18T13:27:09;34.63;;;17.20;;
12163;SDS011;6145;50.192;10.064;2023-11-18T13:29:39;34.97;;;18.50;;
12163;SDS011;6145;50.192;10.064;2023-11-18T13:32:10;32.03;;;17.33;;
12163;SDS011;6145;50.192;10.064;2023-11-18T13:34:38;34.97;;;17.10;;
12163;SDS011;6145;50.192;10.064;2023-11-18T13:37:08;35.10;;;18.03;;
12163;SDS011;6145;50.192;10.064;2023-11-18T13:39:35;42.07;;;18.30;;
12163;SDS011;6145;50.192;10.064;2023-11-18T13:42:17;33.97;;;16.40;;
12163;SDS011;6145;50.192;10.064;2023-11-18T13:44:45;36.13;;;18.47;;
12163;SDS011;6145;50.192;10.064;2023-11-18T13:47:13;34.47;;;16.23;;
12163;SDS011;6145;50.192;10.064;2023-11-18T13:49:43;32.27;;;16.50;;
12163;SDS011;6145;50.192;10.064;2023-11-18T13:52:12;34.70;;;17.50;;
12163;SDS011;6145;50.192;10.064;2023-11-18T13:54:42;30.30;;;17.07;;
12163;SDS011;6145;50.192;10.064;2023-11-18T13:57:10;32.53;;;16.30;;
12163;SDS011;6145;50.192;10.064;2023-11-18T13:59:37;32.33;;;17.63;;
12163;SDS011;6145;50.192;10.064;2023-11-18T14:02:04;35.97;;;18.07;;
12163;SDS011;6145;50.192;10.064;2023-11-18T14:04:33;23.80;;;12.67;;
12163;SDS011;6145;50.192;10.064;2023-11-18T14:07:01;24.03;;;12.23;;
12163;SDS011;6145;50.192;10.064;2023-11-18T14:09:31;26.67;;;13.17;;
12163;SDS011;6145;50.192;10.064;2023-11-18T14:12:01;25.97;;;12.70;;
12163;SDS011;6145;50.192;10.064;2023-11-18T14:14:30;31.53;;;15.97;;
12163;SDS011;6145;50.192;10.064;2023-11-18T14:16:57;29.27;;;16.27;;
12163;SDS011;6145;50.192;10.064;2023-11-18T14:19:24;31.50;;;17.33;;
12163;SDS011;6145;50.192;10.064;2023-11-18T14:21:51;33.00;;;17.83;;
12163;SDS011;6145;50.192;10.064;2023-11-18T14:24:18;27.17;;;17.03;;
12163;SDS011;6145;50.192;10.064;2023-11-18T14:26:49;28.77;;;16.87;;
12163;SDS011;6145;50.192;10.064;2023-11-18T14:29:16;29.03;;;17.23;;
12163;SDS011;6145;50.192;10.064;2023-11-18T14:31:43;30.17;;;17.67;;
12163;SDS011;6145;50.192;10.064;2023-11-18T14:34:11;29.63;;;18.67;;
12163;SDS011;6145;50.192;10.064;2023-11-18T14:36:38;27.97;;;17.30;;
12163;SDS011;6145;50.192;10.064;2023-11-18T14:39:08;31.50;;;18.77;;
12163;SDS011;6145;50.192;10.064;2023-11-18T14:41:37;31.20;;;17.87;;
12163;SDS011;6145;50.192;10.064;2023-11-18T14:44:07;27.20;;;16.03;;
12163;SDS011;6145;50.192;10.064;2023-11-18T14:46:34;34.87;;;17.23;;
12163;SDS011;6145;50.192;10.064;2023-11-18T14:49:03;29.30;;;17.77;;
12163;SDS011;6145;50.192;10.064;2023-11-18T14:51:30;30.03;;;17.83;;
12163;SDS011;6145;50.192;10.064;2023-11-18T14:53:57;32.10;;;17.57;;
12163;SDS011;6145;50.192;10.064;2023-11-18T14:56:24;29.63;;;18.07;;
12163;SDS011;6145;50.192;10.064;2023-11-18T14:58:51;28.50;;;16.77;;
12163;SDS011;6145;50.192;10.064;2023-11-18T15:01:19;32.63;;;17.97;;
12163;SDS011;6145;50.192;10.064;2023-11-18T15:03:46;29.80;;;18.20;;
12163;SDS011;6145;50.192;10.064;2023-11-18T15:06:13;29.47;;;18.53;;
12163;SDS011;6145;50.192;10.064;2023-11-18T15:08:41;35.93;;;20.13;;
12163;SDS011;6145;50.192;10.064;2023-11-18T15:11:08;31.17;;;19.00;;
12163;SDS011;6145;50.192;10.064;2023-11-18T15:13:35;34.77;;;20.40;;
12163;SDS011;6145;50.192;10.064;2023-11-18T15:16:02;30.87;;;19.10;;
12163;SDS011;6145;50.192;10.064;2023-11-18T15:18:31;34.10;;;19.77;;
12163;SDS011;6145;50.192;10.064;2023-11-18T15:21:06;31.33;;;17.97;;
12163;SDS011;6145;50.192;10.064;2023-11-18T15:23:35;32.53;;;19.67;;
12163;SDS011;6145;50.192;10.064;2023-11-18T15:26:02;32.47;;;20.80;;
12163;SDS011;6145;50.192;10.064;2023-11-18T15:28:39;36.70;;;20.63;;
12163;SDS011;6145;50.192;10.064;2023-11-18T15:31:06;32.50;;;19.20;;
12163;SDS011;6145;50.192;10.064;2023-11-18T15:33:34;32.53;;;18.83;;
12163;SDS011;6145;50.192;10.064;2023-11-18T15:36:01;33.73;;;18.87;;
12163;SDS011;6145;50.192;10.064;2023-11-18T15:38:30;29.83;;;16.80;;
12163;SDS011;6145;50.192;10.064;2023-11-18T15:40:59;32.50;;;17.27;;
12163;SDS011;6145;50.192;10.064;2023-11-18T15:43:26;31.50;;;17.93;;
12163;SDS011;6145;50.192;10.064;2023-11-18T15:45:53;35.20;;;18.57;;
12163;SDS011;6145;50.192;10.064;2023-11-18T15:48:21;33.87;;;18.53;;
12163;SDS011;6145;50.192;10.064;2023-11-18T15:50:49;29.27;;;17.17;;
12163;SDS011;6145;50.192;10.064;2023-11-18T15:53:16;31.57;;;18.27;;
12163;SDS011;6145;50.192;10.064;2023-11-18T15:55:44;31.00;;;16.83;;
12163;SDS011;6145;50.192;10.064;2023-11-18T15:58:12;33.33;;;16.77;;
12163;SDS011;6145;50.192;10.064;2023-11-18T16:00:39;31.97;;;16.70;;
12163;SDS011;6145;50.192;10.064;2023-11-18T16:03:06;28.80;;;15.77;;
12163;SDS011;6145;50.192;10.064;2023-11-18T16:05:33;29.07;;;15.90;;
12163;SDS011;6145;50.192;10.064;2023-11-18T16:08:02;25.13;;;14.13;;
12163;SDS011;6145;50.192;10.064;2023-11-18T16:10:32;27.93;;;14.90;;
12163;SDS011;6145;50.192;10.064;2023-11-18T16:12:59;25.13;;;14.37;;
12163;SDS011;6145;50.192;10.064;2023-11-18T16:15:27;25.57;;;15.47;;
12163;SDS011;6145;50.192;10.064;2023-11-18T16:17:55;32.87;;;21.00;;
12163;SDS011;6145;50.192;10.064;2023-11-18T16:20:29;25.10;;;15.00;;
12163;SDS011;6145;50.192;10.064;2023-11-18T16:22:57;23.53;;;13.97;;
12163;SDS011;6145;50.192;10.064;2023-11-18T16:25:28;25.20;;;14.47;;
12163;SDS011;6145;50.192;10.064;2023-11-18T16:27:56;21.20;;;13.47;;
12163;SDS011;6145;50.192;10.064;2023-11-18T16:30:24;21.87;;;13.93;;
12163;SDS011;6145;50.192;10.064;2023-11-18T16:32:54;21.90;;;15.87;;
12163;SDS011;6145;50.192;10.064;2023-11-18T16:35:22;28.33;;;17.50;;
12163;SDS011;6145;50.192;10.064;2023-11-18T16:37:50;28.87;;;16.37;;
12163;SDS011;6145;50.192;10.064;2023-11-18T16:40:17;25.47;;;15.70;;
12163;SDS011;6145;50.192;10.064;2023-11-18T16:42:47;22.17;;;13.80;;
12163;SDS011;6145;50.192;10.064;2023-11-18T16:45:16;22.17;;;13.63;;
12163;SDS011;6145;50.192;10.064;2023-11-18T16:47:45;17.97;;;13.40;;
12163;SDS011;6145;50.192;10.064;2023-11-18T16:50:16;18.37;;;12.30;;
12163;SDS011;6145;50.192;10.064;2023-11-18T16:52:43;18.83;;;12.23;;
12163;SDS011;6145;50.192;10.064;2023-11-18T16:55:11;21.00;;;13.60;;
12163;SDS011;6145;50.192;10.064;2023-11-18T16:57:38;22.60;;;15.40;;